Time;durP1;ratioP1;P1;durP2;ratioP2;P2;SDS_P1;SDS_P2;PMS_P1;PMS_P2;Temp;Humidity;BMP_temperature;BMP_pressure;BME280_temperature;BME280_humidity;BME280_pressure;Samples;Min_cycle;Max_cycle;Signal;HPM_P1;HPM_P2
2023/04/18 00:02:15;;;;;;;1.80;0.65;;;10.70;99.90;;;;;;5057671;28;20447;-72
2023/04/18 00:04:49;;;;;;;0.65;0.50;;;10.80;99.90;;;;;;5076511;28;20042;-72
2023/04/18 00:07:16;;;;;;;0.10;0.10;;;10.70;99.90;;;;;;5075734;28;20029;-72
2023/04/18 00:09:42;;;;;;;4.95;3.40;;;10.70;99.90;;;;;;5075544;28;20091;-72
2023/04/18 00:12:09;;;;;;;3.55;2.08;;;10.60;99.90;;;;;;5075533;28;20029;-72
2023/04/18 00:14:36;;;;;;;1.27;1.17;;;10.50;99.90;;;;;;5060243;28;20056;-72
2023/04/18 00:17:07;;;;;;;0.30;0.30;;;10.60;99.90;;;;;;5068077;28;20017;-72
2023/04/18 00:19:34;;;;;;;2.38;2.17;;;10.60;99.90;;;;;;5057296;28;20028;-72
2023/04/18 00:21:59;;;;;;;8.45;4.60;;;10.60;99.90;;;;;;5075272;28;20028;-72
2023/04/18 00:24:25;;;;;;;0.32;0.32;;;10.50;99.90;;;;;;5075466;28;20358;-72
2023/04/18 00:26:51;;;;;;;5.03;3.10;;;10.50;99.90;;;;;;5075482;28;20025;-72
2023/04/18 00:29:17;;;;;;;0.45;0.45;;;10.60;99.90;;;;;;5075401;28;20017;-72
2023/04/18 00:31:42;;;;;;;3.42;1.98;;;10.60;99.90;;;;;;5075601;28;20056;-72
2023/04/18 00:34:08;;;;;;;1.42;1.33;;;10.50;99.90;;;;;;5056889;28;20017;-72
2023/04/18 00:36:34;;;;;;;2.17;1.60;;;10.60;99.90;;;;;;5075165;28;20427;-72
2023/04/18 00:38:59;;;;;;;3.58;3.22;;;10.50;99.90;;;;;;5075037;28;20043;-72
2023/04/18 00:41:27;;;;;;;5.15;3.15;;;10.40;99.90;;;;;;5057283;28;20044;-72
2023/04/18 00:43:53;;;;;;;0.75;0.75;;;10.30;99.90;;;;;;5057224;28;20041;-72
2023/04/18 00:46:19;;;;;;;0.77;0.77;;;10.30;99.90;;;;;;5057598;28;20009;-72
2023/04/18 00:48:46;;;;;;;2.50;1.35;;;10.30;99.90;;;;;;5074945;28;20036;-72
2023/04/18 00:51:12;;;;;;;0.20;0.20;;;10.30;99.90;;;;;;5056523;28;20168;-72
2023/04/18 00:53:43;;;;;;;1.17;1.17;;;10.30;99.90;;;;;;5057383;28;20534;-72
2023/04/18 00:56:08;;;;;;;1.65;1.55;;;10.30;99.90;;;;;;5074961;28;20017;-72
2023/04/18 00:58:34;;;;;;;4.88;1.23;;;10.20;99.90;;;;;;5056910;28;20029;-72
2023/04/18 01:01:00;;;;;;;0.52;0.52;;;10.20;99.90;;;;;;5057087;28;20035;-72
2023/04/18 01:03:26;;;;;;;2.72;1.90;;;10.20;99.90;;;;;;5074677;28;20036;-72
2023/04/18 01:05:54;;;;;;;0.95;0.80;;;10.10;99.90;;;;;;5074603;28;20086;-72
2023/04/18 01:08:20;;;;;;;1.30;1.20;;;10.10;99.90;;;;;;5056504;28;20039;-72
2023/04/18 01:10:47;;;;;;;0.30;0.30;;;10.10;99.90;;;;;;5074648;28;20021;-72
2023/04/18 01:13:16;;;;;;;1.50;1.40;;;10.10;99.90;;;;;;5056425;28;20024;-72
2023/04/18 01:15:48;;;;;;;1.98;1.48;;;10.20;99.90;;;;;;5056719;28;20381;-72
2023/04/18 01:18:17;;;;;;;0.70;0.57;;;10.00;99.90;;;;;;5074513;28;20040;-72
2023/04/18 01:20:46;;;;;;;0.52;0.52;;;10.10;99.90;;;;;;5056413;28;20031;-72
2023/04/18 01:23:16;;;;;;;0.40;0.40;;;10.20;99.90;;;;;;5056239;28;20085;-72
2023/04/18 01:25:43;;;;;;;0.13;0.13;;;10.20;99.90;;;;;;5074287;28;20380;-72
2023/04/18 01:28:09;;;;;;;3.50;2.15;;;10.10;99.90;;;;;;5074408;28;20064;-72
2023/04/18 01:30:35;;;;;;;0.10;0.10;;;10.10;99.90;;;;;;5074276;28;20032;-72
2023/04/18 01:33:03;;;;;;;0.10;0.10;;;9.90;99.90;;;;;;5056620;28;20032;-72
2023/04/18 01:35:29;;;;;;;0.38;0.32;;;9.90;99.90;;;;;;5073869;28;20101;-72
2023/04/18 01:37:56;;;;;;;1.25;0.70;;;9.90;99.90;;;;;;5074236;28;20381;-72
2023/04/18 01:40:23;;;;;;;3.30;2.38;;;9.90;99.90;;;;;;5073883;28;20477;-72
2023/04/18 01:42:49;;;;;;;0.32;0.32;;;9.80;99.90;;;;;;5073795;28;20035;-72
2023/04/18 01:45:15;;;;;;;0.28;0.28;;;9.80;99.90;;;;;;5055487;28;20420;-72
2023/04/18 01:47:42;;;;;;;0.68;0.55;;;9.80;99.90;;;;;;5056068;28;20035;-72
2023/04/18 01:50:10;;;;;;;0.20;0.20;;;9.70;99.90;;;;;;5055724;28;20479;-72
2023/04/18 01:52:36;;;;;;;0.68;0.68;;;9.90;99.90;;;;;;5055741;28;20385;-72
2023/04/18 01:55:02;;;;;;;1.45;0.90;;;9.70;99.90;;;;;;5055974;28;20029;-72
2023/04/18 01:57:29;;;;;;;4.50;1.77;;;9.70;99.90;;;;;;5053100;28;20385;-72
2023/04/18 01:59:55;;;;;;;2.20;1.20;;;9.70;99.90;;;;;;5044697;28;20048;-72
2023/04/18 02:02:21;;;;;;;3.65;1.77;;;9.70;99.90;;;;;;5055594;28;20040;-72
2023/04/18 02:04:46;;;;;;;2.45;2.25;;;9.70;99.90;;;;;;5073391;28;20457;-72
2023/04/18 02:07:12;;;;;;;0.20;0.20;;;9.50;99.90;;;;;;5073712;28;20032;-72
2023/04/18 02:09:38;;;;;;;1.27;1.20;;;9.50;99.90;;;;;;5073629;28;20039;-72
2023/04/18 02:12:04;;;;;;;0.98;0.93;;;9.50;99.90;;;;;;5055597;28;20025;-72
2023/04/18 02:14:32;;;;;;;7.78;3.58;;;9.50;99.90;;;;;;5055148;28;20026;-72
2023/04/18 02:16:59;;;;;;;6.22;5.35;;;9.40;99.90;;;;;;5039317;28;20534;-72
2023/04/18 02:19:27;;;;;;;4.75;2.75;;;9.30;99.90;;;;;;5073062;28;20119;-72
2023/04/18 02:21:53;;;;;;;1.35;1.08;;;9.30;99.90;;;;;;5073036;28;20477;-72
2023/04/18 02:24:19;;;;;;;23.48;3.88;;;9.30;99.90;;;;;;5073161;28;20036;-72
2023/04/18 02:26:45;;;;;;;1.90;1.70;;;9.30;99.90;;;;;;5073020;28;20021;-72
2023/04/18 02:29:11;;;;;;;1.83;1.70;;;9.20;99.90;;;;;;5073472;28;20480;-71
2023/04/18 02:31:39;;;;;;;11.95;6.57;;;9.20;99.90;;;;;;5055157;28;20016;-72
2023/04/18 02:34:06;;;;;;;5.13;2.28;;;9.10;99.90;;;;;;5054956;28;20099;-72
2023/04/18 02:36:32;;;;;;;1.58;1.48;;;9.20;99.90;;;;;;5072984;28;20090;-72
2023/04/18 02:38:57;;;;;;;4.30;2.20;;;9.30;99.90;;;;;;5072724;28;20442;-72
2023/04/18 02:41:23;;;;;;;6.43;4.47;;;9.30;99.90;;;;;;5072964;28;20029;-72
2023/04/18 02:43:49;;;;;;;0.32;0.32;;;9.20;99.90;;;;;;5054831;28;20055;-72
2023/04/18 02:46:17;;;;;;;5.38;1.55;;;9.30;99.90;;;;;;5055210;28;20023;-72
2023/04/18 02:48:46;;;;;;;0.65;0.65;;;9.20;99.90;;;;;;5054544;28;20035;-72
2023/04/18 02:51:13;;;;;;;4.20;2.28;;;9.20;99.90;;;;;;5054657;28;20020;-72
2023/04/18 02:53:40;;;;;;;6.15;3.60;;;9.20;99.90;;;;;;5072665;28;20024;-72
2023/04/18 02:56:06;;;;;;;2.30;2.08;;;9.10;99.90;;;;;;5054048;28;20029;-72
2023/04/18 02:59:01;;;;;;;0.98;0.98;;;9.20;99.90;;;;;;5063535;28;20115;-72
2023/04/18 03:01:53;;;;;;;3.72;2.28;;;9.20;99.90;;;;;;5065216;28;20032;-72
2023/04/18 03:04:21;;;;;;;4.15;2.13;;;9.20;99.90;;;;;;5072681;28;20036;-72
2023/04/18 03:06:56;;;;;;;1.23;1.17;;;9.20;99.90;;;;;;5054702;28;20071;-72
2023/04/18 03:09:22;;;;;;;1.08;1.05;;;9.20;99.90;;;;;;5054554;28;20024;-72
2023/04/18 03:11:54;;;;;;;9.50;5.30;;;9.10;99.90;;;;;;5054638;28;20045;-72
2023/04/18 03:14:24;;;;;;;0.30;0.30;;;9.00;99.90;;;;;;5054428;28;20028;-72
2023/04/18 03:16:53;;;;;;;1.40;1.30;;;8.90;99.90;;;;;;5054277;28;20376;-71
2023/04/18 03:19:22;;;;;;;6.40;3.15;;;8.90;99.90;;;;;;5054449;28;20036;-72
2023/04/18 03:21:49;;;;;;;2.55;1.77;;;8.80;99.90;;;;;;5054336;28;20211;-72
2023/04/18 03:24:15;;;;;;;2.47;1.45;;;8.80;99.90;;;;;;5054559;28;20044;-72
2023/04/18 03:26:44;;;;;;;0.25;0.25;;;8.90;99.90;;;;;;5054364;28;20023;-72
2023/04/18 03:29:11;;;;;;;3.75;2.35;;;8.70;99.90;;;;;;5038215;28;20029;-71
2023/04/18 03:31:40;;;;;;;6.82;2.83;;;8.60;99.90;;;;;;5037646;28;20016;-71
2023/04/18 03:34:06;;;;;;;4.38;2.05;;;8.60;99.90;;;;;;5054382;28;20354;-72
2023/04/18 03:36:33;;;;;;;0.10;0.10;;;8.50;99.90;;;;;;5054491;28;20120;-71
2023/04/18 03:38:59;;;;;;;6.03;3.95;;;8.50;99.90;;;;;;5056276;28;20043;-72
2023/04/18 03:41:26;;;;;;;3.20;0.73;;;8.60;99.90;;;;;;5071226;28;20484;-72
2023/04/18 03:43:53;;;;;;;2.70;2.45;;;8.60;99.90;;;;;;5071007;28;20583;-72
2023/04/18 03:46:20;;;;;;;0.22;0.22;;;8.60;99.90;;;;;;5072356;28;20103;-72
2023/04/18 03:48:49;;;;;;;0.20;0.20;;;8.50;99.90;;;;;;5070769;28;20484;-71
2023/04/18 03:51:15;;;;;;;0.15;0.15;;;8.60;99.90;;;;;;5071153;28;20017;-71
2023/04/18 03:53:41;;;;;;;1.73;1.63;;;8.80;99.90;;;;;;5070835;28;20033;-71
2023/04/18 03:56:07;;;;;;;3.75;3.38;;;8.80;99.90;;;;;;5070745;28;20024;-72
2023/04/18 03:58:53;;;;;;;2.10;1.23;;;8.60;99.90;;;;;;5071758;28;20041;-72
2023/04/18 04:01:20;;;;;;;0.20;0.20;;;8.70;99.90;;;;;;5070782;28;20058;-72
2023/04/18 04:03:46;;;;;;;1.00;0.50;;;8.50;99.90;;;;;;5070428;28;20519;-72
2023/04/18 04:06:12;;;;;;;1.67;1.55;;;8.60;99.90;;;;;;5070991;28;20100;-72
2023/04/18 04:08:37;;;;;;;0.85;0.85;;;8.60;99.90;;;;;;5072739;28;20082;-72
2023/04/18 04:11:03;;;;;;;6.32;3.05;;;8.50;99.90;;;;;;5074338;28;20477;-72
2023/04/18 04:13:29;;;;;;;0.73;0.73;;;8.40;99.90;;;;;;5074448;28;20020;-71
2023/04/18 04:15:56;;;;;;;7.35;3.67;;;8.40;99.90;;;;;;5073910;28;20035;-72
2023/04/18 04:18:28;;;;;;;0.65;0.65;;;8.30;99.90;;;;;;5074219;28;20101;-72
2023/04/18 04:20:56;;;;;;;6.97;2.22;;;8.30;99.90;;;;;;5074439;28;20389;-72
2023/04/18 04:23:33;;;;;;;4.90;3.05;;;8.30;99.90;;;;;;5073831;28;20033;-72
2023/04/18 04:26:03;;;;;;;0.95;0.95;;;8.20;99.90;;;;;;5074562;28;20028;-72
2023/04/18 04:28:46;;;;;;;5.05;2.25;;;8.20;99.90;;;;;;5073520;28;20446;-72
2023/04/18 04:31:15;;;;;;;0.77;0.60;;;8.10;99.90;;;;;;5074187;28;20028;-72
2023/04/18 04:33:42;;;;;;;1.02;0.98;;;8.20;99.90;;;;;;5073900;28;20021;-72
2023/04/18 04:36:15;;;;;;;0.95;0.82;;;8.30;99.90;;;;;;5074222;28;20059;-74
2023/04/18 04:38:43;;;;;;;1.42;0.93;;;8.00;99.90;;;;;;5073477;28;20025;-72
2023/04/18 04:41:09;;;;;;;1.63;1.30;;;8.00;99.90;;;;;;5057440;28;20078;-72
2023/04/18 04:43:35;;;;;;;3.22;2.92;;;8.00;99.90;;;;;;5056188;28;20511;-72
2023/04/18 04:46:03;;;;;;;2.97;1.63;;;7.90;99.90;;;;;;5050528;28;20021;-72
2023/04/18 04:48:29;;;;;;;3.47;2.65;;;7.90;99.90;;;;;;5065100;28;20048;-72
2023/04/18 04:50:56;;;;;;;0.98;0.30;;;7.90;99.90;;;;;;5072601;28;20472;-72
2023/04/18 04:53:27;;;;;;;2.47;2.05;;;7.90;99.90;;;;;;5057005;28;20017;-72
2023/04/18 04:55:53;;;;;;;4.85;2.28;;;7.70;99.90;;;;;;5056779;28;20334;-72
2023/04/18 04:58:21;;;;;;;0.10;0.10;;;7.80;99.90;;;;;;5040198;28;20051;-72
2023/04/18 05:01:12;;;;;;;0.35;0.35;;;7.80;99.90;;;;;;5073714;28;20492;-71
2023/04/18 05:03:39;;;;;;;2.58;2.20;;;7.90;99.90;;;;;;5056519;28;20024;-72
2023/04/18 05:06:05;;;;;;;0.95;0.95;;;7.90;99.90;;;;;;5056820;28;20107;-72
2023/04/18 05:08:31;;;;;;;0.30;0.30;;;7.80;99.90;;;;;;5074731;28;20107;-72
2023/04/18 05:10:57;;;;;;;0.73;0.73;;;7.90;99.90;;;;;;5074677;28;20480;-72
2023/04/18 05:13:23;;;;;;;0.57;0.57;;;7.80;99.90;;;;;;5074401;28;20111;-72
2023/04/18 05:15:48;;;;;;;2.63;1.98;;;7.90;99.90;;;;;;5074581;28;20029;-71
2023/04/18 05:18:14;;;;;;;5.78;2.95;;;8.00;99.90;;;;;;5074530;28;20028;-71
2023/04/18 05:20:40;;;;;;;1.13;1.02;;;7.90;99.90;;;;;;5073526;28;20013;-71
2023/04/18 05:23:06;;;;;;;0.50;0.50;;;8.00;99.90;;;;;;5074449;28;20036;-71
2023/04/18 05:25:32;;;;;;;3.92;1.48;;;8.00;99.90;;;;;;5074434;28;20028;-72
2023/04/18 05:28:03;;;;;;;0.45;0.45;;;8.00;99.90;;;;;;5056529;28;20498;-72
2023/04/18 05:30:29;;;;;;;3.90;3.35;;;7.90;99.90;;;;;;5074325;28;20078;-71
2023/04/18 05:32:55;;;;;;;4.57;2.15;;;7.90;99.90;;;;;;5074069;28;20028;-71
2023/04/18 05:35:20;;;;;;;1.98;1.65;;;7.80;99.90;;;;;;5074140;28;20039;-72
2023/04/18 05:37:46;;;;;;;0.10;0.10;;;7.80;99.90;;;;;;5074281;28;20024;-71
2023/04/18 05:40:12;;;;;;;1.25;1.05;;;7.90;99.90;;;;;;5073678;28;20111;-72
2023/04/18 05:42:38;;;;;;;1.70;1.60;;;8.00;99.90;;;;;;5073670;28;20036;-72
2023/04/18 05:45:04;;;;;;;0.70;0.40;;;8.00;99.90;;;;;;5074040;28;20028;-72
2023/04/18 05:47:32;;;;;;;2.03;1.08;;;8.00;99.90;;;;;;5074087;28;20386;-72
2023/04/18 05:49:58;;;;;;;2.92;1.48;;;8.10;99.90;;;;;;5073785;28;20477;-72
2023/04/18 05:52:24;;;;;;;0.65;0.65;;;8.10;99.90;;;;;;5073739;28;20102;-72
2023/04/18 05:54:51;;;;;;;0.22;0.22;;;8.20;99.90;;;;;;5058890;28;20028;-73
2023/04/18 05:57:16;;;;;;;0.15;0.15;;;8.40;99.90;;;;;;5061780;28;20028;-72
2023/04/18 05:59:43;;;;;;;9.23;1.98;;;8.30;99.90;;;;;;5054692;28;20082;-72
2023/04/18 06:02:12;;;;;;;2.38;1.70;;;8.40;99.90;;;;;;5052927;28;20095;-72
2023/04/18 06:04:41;;;;;;;1.75;0.85;;;8.40;99.90;;;;;;5063926;28;20052;-72
2023/04/18 06:07:08;;;;;;;2.47;1.65;;;8.50;99.90;;;;;;5047067;28;20357;-72
2023/04/18 06:09:34;;;;;;;0.52;0.50;;;8.40;99.90;;;;;;5057848;28;20033;-72
2023/04/18 06:12:00;;;;;;;5.40;3.17;;;8.30;99.90;;;;;;5052986;28;20037;-72
2023/04/18 06:14:27;;;;;;;2.05;1.55;;;8.30;99.90;;;;;;5065078;28;20075;-72
2023/04/18 06:16:52;;;;;;;0.10;0.10;;;8.30;99.90;;;;;;5064277;28;20028;-72
2023/04/18 06:19:18;;;;;;;1.08;0.80;;;8.40;99.90;;;;;;5057735;28;20032;-72
2023/04/18 06:21:44;;;;;;;1.30;1.13;;;8.50;99.90;;;;;;5055278;28;20028;-73
2023/04/18 06:24:10;;;;;;;0.85;0.85;;;8.40;99.90;;;;;;5043489;28;20032;-72
2023/04/18 06:26:35;;;;;;;3.22;1.80;;;8.60;99.90;;;;;;5072006;28;20021;-72
2023/04/18 06:29:01;;;;;;;0.77;0.70;;;8.70;99.90;;;;;;5046554;28;20123;-72
2023/04/18 06:31:27;;;;;;;3.97;2.63;;;8.60;99.90;;;;;;5030618;28;20021;-72
2023/04/18 06:33:52;;;;;;;3.35;2.60;;;8.80;99.90;;;;;;5059268;28;20013;-72
2023/04/18 06:36:18;;;;;;;1.17;1.08;;;8.70;99.90;;;;;;5063955;28;20032;-72
2023/04/18 06:38:44;;;;;;;2.25;1.52;;;8.90;99.90;;;;;;5070873;28;20029;-72
2023/04/18 06:41:11;;;;;;;1.95;0.63;;;8.90;99.90;;;;;;5072259;28;20036;-72
2023/04/18 06:43:37;;;;;;;2.53;1.85;;;9.00;99.90;;;;;;5072037;28;20391;-72
2023/04/18 06:46:04;;;;;;;7.13;1.05;;;9.00;99.90;;;;;;5072187;28;20081;-72
2023/04/18 06:48:30;;;;;;;3.97;2.20;;;8.90;99.90;;;;;;5072116;28;20037;-72
2023/04/18 06:50:56;;;;;;;1.83;1.25;;;9.00;99.90;;;;;;5053689;28;20024;-73
2023/04/18 06:53:21;;;;;;;3.72;2.45;;;8.90;99.90;;;;;;5067050;28;20055;-73
2023/04/18 06:55:47;;;;;;;0.82;0.82;;;8.90;99.90;;;;;;5059434;28;20377;-73
2023/04/18 06:58:15;;;;;;;0.90;0.88;;;9.10;99.90;;;;;;5053304;28;20033;-72
2023/04/18 07:00:41;;;;;;;3.05;2.10;;;9.10;99.90;;;;;;5036324;28;20090;-72
2023/04/18 07:03:11;;;;;;;1.05;0.95;;;9.20;99.90;;;;;;5056173;28;20115;-72
2023/04/18 07:05:40;;;;;;;1.30;0.95;;;9.40;99.90;;;;;;5066392;28;20029;-72
2023/04/18 07:08:06;;;;;;;1.48;1.35;;;9.50;99.90;;;;;;5057700;28;20017;-72
2023/04/18 07:10:32;;;;;;;2.17;1.98;;;9.40;99.90;;;;;;5071289;28;20583;-72
2023/04/18 07:12:58;;;;;;;1.42;1.33;;;9.40;99.90;;;;;;5056075;28;20119;-72
2023/04/18 07:15:24;;;;;;;1.40;1.30;;;9.50;99.90;;;;;;5068083;28;20052;-72
2023/04/18 07:17:50;;;;;;;0.43;0.43;;;9.50;99.90;;;;;;5063111;28;20028;-72
2023/04/18 07:20:15;;;;;;;0.85;0.75;;;9.70;99.90;;;;;;5057311;28;20025;-72
2023/04/18 07:22:41;;;;;;;2.72;1.27;;;9.80;99.90;;;;;;5054396;28;20040;-72
2023/04/18 07:25:07;;;;;;;1.98;0.80;;;10.00;99.90;;;;;;5057033;28;20029;-72
2023/04/18 07:27:36;;;;;;;4.85;1.02;;;10.20;99.90;;;;;;5071607;28;20028;-73
2023/04/18 07:30:03;;;;;;;1.35;1.17;;;10.30;99.90;;;;;;5053135;28;20119;-73
2023/04/18 07:32:29;;;;;;;2.65;1.75;;;10.50;99.90;;;;;;5071599;28;20035;-74
2023/04/18 07:34:56;;;;;;;2.67;1.95;;;10.30;99.90;;;;;;5071468;28;20024;-73
2023/04/18 07:37:22;;;;;;;2.42;2.05;;;10.40;99.90;;;;;;5071253;28;20039;-72
2023/04/18 07:39:48;;;;;;;2.95;2.03;;;10.50;99.90;;;;;;5066917;28;20035;-72
2023/04/18 07:42:13;;;;;;;1.33;1.25;;;10.60;99.90;;;;;;5051982;28;20104;-72
2023/04/18 07:44:39;;;;;;;6.95;4.13;;;10.40;99.90;;;;;;5066698;28;20497;-72
2023/04/18 07:47:09;;;;;;;2.80;2.00;;;10.30;99.90;;;;;;5062832;28;20032;-72
2023/04/18 07:49:36;;;;;;;1.40;1.30;;;10.10;99.90;;;;;;5037660;28;20451;-72
2023/04/18 07:52:02;;;;;;;0.43;0.15;;;10.10;99.90;;;;;;5055356;28;20464;-72
2023/04/18 07:54:28;;;;;;;0.43;0.35;;;10.20;99.90;;;;;;5059780;28;20051;-72
2023/04/18 07:56:54;;;;;;;1.35;1.25;;;10.30;99.90;;;;;;5064727;28;20470;-72
2023/04/18 07:59:20;;;;;;;1.38;0.85;;;10.40;99.90;;;;;;5058771;28;20079;-72
2023/04/18 08:01:45;;;;;;;3.08;1.40;;;10.60;99.90;;;;;;5057110;28;20036;-72
2023/04/18 08:04:11;;;;;;;3.47;1.92;;;10.50;99.90;;;;;;5066234;28;20139;-72
2023/04/18 08:06:37;;;;;;;2.50;1.83;;;10.70;99.90;;;;;;5063644;28;20036;-72
2023/04/18 08:09:04;;;;;;;0.80;0.73;;;10.80;99.90;;;;;;5064639;28;20020;-72
2023/04/18 08:11:31;;;;;;;3.30;2.15;;;10.90;99.90;;;;;;5055623;28;20029;-72
2023/04/18 08:13:57;;;;;;;1.38;0.90;;;10.80;99.90;;;;;;5056196;28;20032;-72
2023/04/18 08:16:23;;;;;;;2.90;1.25;;;10.90;99.90;;;;;;5065237;28;20477;-71
2023/04/18 08:18:49;;;;;;;3.72;1.85;;;11.20;99.90;;;;;;5064413;28;20113;-72
2023/04/18 08:21:14;;;;;;;4.45;1.25;;;11.20;99.90;;;;;;5060605;28;20054;-71
2023/04/18 08:23:40;;;;;;;17.65;3.08;;;11.30;99.90;;;;;;5054509;28;20037;-72
2023/04/18 08:26:06;;;;;;;0.82;0.82;;;11.30;99.90;;;;;;5057194;28;20036;-73
2023/04/18 08:28:31;;;;;;;6.55;3.92;;;11.50;99.90;;;;;;5065781;28;20086;-72
2023/04/18 08:30:57;;;;;;;2.45;2.30;;;11.60;99.90;;;;;;5066600;28;20024;-72
2023/04/18 08:33:23;;;;;;;2.30;1.60;;;12.20;99.90;;;;;;5058139;28;20032;-71
2023/04/18 08:35:52;;;;;;;4.30;2.45;;;12.40;99.90;;;;;;5040227;28;20428;-72
2023/04/18 08:38:18;;;;;;;1.10;1.00;;;12.60;99.90;;;;;;5055297;28;20542;-72
2023/04/18 08:40:45;;;;;;;4.35;2.97;;;12.80;99.90;;;;;;5064513;28;20064;-73
2023/04/18 08:43:13;;;;;;;2.03;1.42;;;12.60;99.90;;;;;;5063317;28;20043;-73
2023/04/18 08:45:43;;;;;;;3.88;2.35;;;12.70;99.90;;;;;;5055835;28;20473;-72
2023/04/18 08:48:12;;;;;;;1.80;1.50;;;13.00;99.90;;;;;;5057006;28;20095;-73
2023/04/18 08:50:39;;;;;;;6.60;2.22;;;13.10;99.90;;;;;;5054632;28;20083;-73
2023/04/18 08:53:05;;;;;;;2.63;1.38;;;12.90;99.90;;;;;;5065817;28;20043;-73
2023/04/18 08:55:32;;;;;;;0.22;0.22;;;13.00;99.90;;;;;;5037919;28;20472;-73
2023/04/18 08:57:58;;;;;;;5.18;1.98;;;13.20;99.90;;;;;;5056621;28;20029;-72
2023/04/18 09:00:26;;;;;;;6.57;3.20;;;13.30;99.90;;;;;;5054010;28;20052;-73
2023/04/18 09:02:57;;;;;;;6.13;3.33;;;13.60;99.90;;;;;;5067715;28;20036;-73
2023/04/18 09:05:24;;;;;;;2.03;1.38;;;13.50;99.90;;;;;;5065308;28;20431;-74
2023/04/18 09:07:52;;;;;;;6.63;1.60;;;13.90;99.90;;;;;;5055860;28;20025;-74
2023/04/18 09:10:32;;;;;;;1.75;1.48;;;13.80;99.90;;;;;;5056271;28;20053;-74
2023/04/18 09:12:59;;;;;;;1.65;1.45;;;13.60;99.90;;;;;;5057821;28;20115;-74
2023/04/18 09:15:27;;;;;;;2.83;1.52;;;13.70;99.90;;;;;;5068093;28;20090;-74
2023/04/18 09:17:56;;;;;;;1.00;0.80;;;13.70;99.90;;;;;;5060629;28;20035;-74
2023/04/18 09:20:34;;;;;;;4.80;2.30;;;13.80;99.90;;;;;;5038936;28;20037;-74
2023/04/18 09:23:10;;;;;;;0.80;0.80;;;13.60;99.90;;;;;;5054457;28;20120;-74
2023/04/18 09:25:43;;;;;;;1.25;1.20;;;13.80;99.90;;;;;;5041957;28;20529;-73
2023/04/18 09:28:23;;;;;;;2.38;1.63;;;14.00;99.90;;;;;;5054237;28;20052;-73
2023/04/18 09:30:51;;;;;;;0.40;0.38;;;14.30;99.90;;;;;;5054448;28;20029;-74
2023/04/18 09:33:26;;;;;;;4.05;1.27;;;14.40;99.90;;;;;;5065215;28;20485;-73
2023/04/18 09:35:53;;;;;;;2.05;1.65;;;14.80;99.90;;;;;;5039528;28;20064;-73
2023/04/18 09:38:19;;;;;;;1.40;1.30;;;14.40;99.90;;;;;;5054657;28;20033;-73
2023/04/18 09:40:45;;;;;;;0.82;0.68;;;13.90;99.90;;;;;;5053736;28;20102;-73
2023/04/18 09:43:20;;;;;;;3.42;2.78;;;14.00;99.90;;;;;;5066751;28;20039;-73
2023/04/18 09:45:49;;;;;;;1.70;1.60;;;13.60;99.90;;;;;;5057983;28;20043;-73
2023/04/18 09:48:15;;;;;;;3.17;1.67;;;13.30;99.90;;;;;;5055658;28;20017;-72
2023/04/18 09:50:42;;;;;;;2.75;1.95;;;13.60;99.90;;;;;;5054061;28;20032;-73
2023/04/18 09:53:10;;;;;;;25.10;3.45;;;13.90;99.90;;;;;;5050384;28;20085;-73
2023/04/18 09:55:38;;;;;;;8.77;3.72;;;13.30;99.90;;;;;;5059817;28;20847;-73
2023/04/18 09:58:07;;;;;;;6.00;2.17;;;13.10;99.90;;;;;;5049937;28;20121;-73
2023/04/18 10:00:35;;;;;;;8.98;2.92;;;13.40;99.90;;;;;;5037251;28;20115;-73
2023/04/18 10:03:08;;;;;;;1.98;1.88;;;13.60;99.90;;;;;;5054466;28;20036;-72
2023/04/18 10:05:36;;;;;;;4.88;2.05;;;13.60;99.90;;;;;;5067061;28;20020;-72
2023/04/18 10:08:03;;;;;;;3.75;1.95;;;13.50;99.90;;;;;;5059262;28;20464;-72
2023/04/18 10:10:29;;;;;;;1.75;1.65;;;14.10;99.90;;;;;;5072279;28;20419;-72
2023/04/18 10:12:57;;;;;;;3.83;2.45;;;13.90;99.90;;;;;;5053756;28;21010;-72
2023/04/18 10:15:25;;;;;;;5.03;1.92;;;14.00;99.90;;;;;;5058952;28;20031;-72
2023/04/18 10:17:52;;;;;;;1.55;1.20;;;14.30;99.90;;;;;;5063499;28;20021;-72
2023/04/18 10:20:21;;;;;;;1.85;0.45;;;14.60;99.90;;;;;;5057989;28;20033;-72
2023/04/18 10:22:48;;;;;;;0.63;0.63;;;14.80;99.90;;;;;;5055730;28;20538;-72
2023/04/18 10:25:37;;;;;;;2.38;1.63;;;15.30;99.90;;;;;;5057532;28;20107;-72
2023/04/18 10:28:04;;;;;;;3.13;2.15;;;15.60;99.90;;;;;;5054432;28;20041;-72
2023/04/18 10:30:39;;;;;;;1.83;1.25;;;15.00;99.90;;;;;;5054473;28;20025;-72
2023/04/18 10:33:29;;;;;;;1.52;0.95;;;15.00;99.80;;;;;;5056161;28;20035;-72
2023/04/18 10:36:00;;;;;;;1.63;0.93;;;15.10;99.30;;;;;;5054273;28;20033;-72
2023/04/18 10:38:26;;;;;;;2.80;1.85;;;14.90;99.90;;;;;;5071848;28;20043;-72
2023/04/18 10:41:10;;;;;;;0.20;0.20;;;15.30;99.90;;;;;;5072252;28;20102;-72
2023/04/18 10:44:08;;;;;;;2.00;1.25;;;15.60;99.10;;;;;;5071877;28;20460;-72
2023/04/18 10:46:40;;;;;;;2.15;1.98;;;15.60;98.20;;;;;;5071667;28;20064;-72
2023/04/18 10:49:13;;;;;;;1.40;1.30;;;15.70;97.30;;;;;;5072001;28;20387;-72
2023/04/18 10:51:39;;;;;;;0.45;0.45;;;15.90;97.10;;;;;;5064408;28;20380;-73
2023/04/18 10:54:09;;;;;;;0.90;0.90;;;16.10;96.60;;;;;;5063855;28;20465;-72
2023/04/18 10:56:35;;;;;;;2.90;1.85;;;16.00;97.50;;;;;;5070383;28;20016;-72
2023/04/18 10:59:02;;;;;;;15.68;1.55;;;16.30;96.80;;;;;;5064968;28;20038;-73
2023/04/18 11:01:32;;;;;;;0.38;0.38;;;16.00;97.50;;;;;;5056753;28;20033;-72
2023/04/18 11:03:58;;;;;;;3.30;1.20;;;15.80;98.20;;;;;;5044205;28;20398;-73
2023/04/18 11:06:26;;;;;;;3.55;3.35;;;15.90;97.90;;;;;;5052198;28;20100;-73
2023/04/18 11:09:07;;;;;;;1.20;1.10;;;15.40;98.30;;;;;;5052324;28;20047;-73
2023/04/18 11:11:33;;;;;;;0.80;0.80;;;15.20;98.50;;;;;;5050872;28;20048;-73
2023/04/18 11:13:59;;;;;;;3.20;2.60;;;14.60;98.90;;;;;;5052566;28;20017;-73
2023/04/18 11:16:33;;;;;;;1.67;1.58;;;14.40;99.60;;;;;;5051775;28;20025;-73
2023/04/18 11:18:59;;;;;;;2.75;1.75;;;14.40;99.90;;;;;;5051953;28;20068;-73
2023/04/18 11:21:28;;;;;;;2.92;1.05;;;14.70;99.80;;;;;;5052080;28;20064;-73
2023/04/18 11:23:55;;;;;;;4.57;2.03;;;15.50;99.90;;;;;;5058975;28;20358;-73
2023/04/18 11:26:25;;;;;;;1.33;1.23;;;16.30;98.70;;;;;;5072228;28;20123;-73
2023/04/18 11:28:55;;;;;;;0.60;0.60;;;16.40;97.40;;;;;;5054591;28;20124;-73
2023/04/18 11:31:23;;;;;;;1.80;1.70;;;15.70;98.10;;;;;;5072353;28;20036;-73
2023/04/18 11:33:55;;;;;;;2.38;1.77;;;15.60;99.20;;;;;;5054545;28;20469;-73
2023/04/18 11:36:21;;;;;;;6.65;3.03;;;16.10;98.50;;;;;;5072202;28;20087;-74
2023/04/18 11:38:46;;;;;;;3.58;1.60;;;16.20;97.50;;;;;;5072003;28;20052;-73
2023/04/18 11:41:15;;;;;;;3.70;2.70;;;16.00;97.80;;;;;;5054681;28;20112;-73
2023/04/18 11:43:45;;;;;;;15.98;3.22;;;15.20;98.10;;;;;;5071927;28;20040;-74
2023/04/18 11:46:14;;;;;;;1.42;1.27;;;15.30;98.60;;;;;;5072326;28;20477;-73
2023/04/18 11:48:44;;;;;;;3.67;2.10;;;15.20;98.50;;;;;;5072287;28;20055;-73
2023/04/18 11:51:37;;;;;;;5.15;2.78;;;15.10;98.00;;;;;;5072188;28;20012;-74
2023/04/18 11:54:03;;;;;;;0.65;0.52;;;14.90;98.20;;;;;;5072120;28;20037;-73
2023/04/18 11:56:30;;;;;;;2.33;1.13;;;15.30;98.20;;;;;;5072083;28;20033;-73
2023/04/18 11:58:56;;;;;;;2.15;1.92;;;15.80;98.00;;;;;;5054022;28;20027;-73
2023/04/18 12:01:24;;;;;;;4.80;2.72;;;15.80;97.90;;;;;;5072140;28;20026;-73
2023/04/18 12:04:19;;;;;;;3.10;1.05;;;15.20;97.20;;;;;;5087717;28;20033;-73
2023/04/18 12:06:54;;;;;;;2.08;1.88;;;15.20;98.30;;;;;;5041512;28;20032;-73
2023/04/18 12:09:23;;;;;;;7.38;2.13;;;15.60;97.80;;;;;;5071788;28;20476;-74
2023/04/18 12:12:02;;;;;;;0.63;0.63;;;15.50;98.00;;;;;;5072177;28;20029;-73
2023/04/18 12:14:28;;;;;;;0.85;0.80;;;15.10;98.50;;;;;;5071591;28;20058;-73
2023/04/18 12:16:55;;;;;;;2.65;2.22;;;15.50;98.30;;;;;;5072219;28;20473;-73
2023/04/18 12:19:26;;;;;;;3.55;1.90;;;15.70;97.50;;;;;;5071990;28;20523;-74
2023/04/18 12:21:55;;;;;;;;;;;15.70;97.60;;;;;;5072608;28;20484;-73
2023/04/18 12:24:23;;;;;;;1.23;1.13;;;15.80;97.50;;;;;;5071971;28;19916;-74
2023/04/18 12:26:49;;;;;;;2.65;2.42;;;16.20;96.70;;;;;;5053996;28;20024;-73
2023/04/18 12:29:16;;;;;;;2.30;1.38;;;16.80;95.70;;;;;;5073255;28;20384;-74
2023/04/18 12:31:42;;;;;;;1.02;1.02;;;17.30;96.20;;;;;;5075283;28;20040;-74
2023/04/18 12:34:07;;;;;;;0.38;0.38;;;17.80;95.20;;;;;;5075550;28;20027;-74
2023/04/18 12:36:33;;;;;;;0.75;0.63;;;17.80;94.30;;;;;;5057639;28;20029;-74
2023/04/18 12:38:59;;;;;;;0.60;0.60;;;17.50;94.30;;;;;;5074968;28;20511;-74
2023/04/18 12:41:25;;;;;;;0.93;0.93;;;17.60;95.10;;;;;;5074912;28;20024;-74
2023/04/18 12:43:50;;;;;;;0.90;0.88;;;17.50;94.50;;;;;;5075120;28;20040;-74
2023/04/18 12:46:16;;;;;;;3.78;1.05;;;17.50;94.10;;;;;;5075246;28;20107;-74
2023/04/18 12:48:42;;;;;;;4.32;1.75;;;17.40;94.30;;;;;;5074974;28;20067;-74
2023/04/18 12:51:07;;;;;;;1.17;1.02;;;16.80;95.00;;;;;;5075211;28;20082;-74
2023/04/18 12:53:33;;;;;;;1.13;1.00;;;16.60;95.40;;;;;;5075151;28;20039;-74
2023/04/18 12:55:59;;;;;;;0.93;0.85;;;17.00;94.90;;;;;;5074554;28;20048;-74